sensor_id;sensor_type;location;lat;lon;timestamp;pressure;altitude;pressure_sealevel;temperature;humidity
59650;BME280;46162;57.568;25.814;2022-12-11T00:01:39;100735.50;;;-9.93;100.00
59650;BME280;46162;57.568;25.814;2022-12-11T00:04:15;100727.88;;;-10.08;100.00
59650;BME280;46162;57.568;25.814;2022-12-11T00:06:50;100734.59;;;-9.89;100.00
59650;BME280;46162;57.568;25.814;2022-12-11T00:09:21;100734.66;;;-9.95;100.00
59650;BME280;46162;57.568;25.814;2022-12-11T00:11:50;100737.94;;;-9.81;100.00
59650;BME280;46162;57.568;25.814;2022-12-11T00:14:19;100744.69;;;-9.67;100.00
59650;BME280;46162;57.568;25.814;2022-12-11T00:16:49;100744.69;;;-9.67;100.00
59650;BME280;46162;57.568;25.814;2022-12-11T00:19:21;100748.78;;;-9.49;100.00
59650;BME280;46162;57.568;25.814;2022-12-11T00:22:02;100745.31;;;-9.50;100.00
59650;BME280;46162;57.568;25.814;2022-12-11T00:24:33;100749.84;;;-9.61;100.00
59650;BME280;46162;57.568;25.814;2022-12-11T00:27:02;100742.19;;;-9.74;100.00
59650;BME280;46162;57.568;25.814;2022-12-11T00:29:33;100752.41;;;-9.60;100.00
59650;BME280;46162;57.568;25.814;2022-12-11T00:32:04;100748.16;;;-9.67;100.00
59650;BME280;46162;57.568;25.814;2022-12-11T00:34:34;100748.34;;;-9.76;100.00
59650;BME280;46162;57.568;25.814;2022-12-11T00:37:03;100740.66;;;-9.88;100.00
59650;BME280;46162;57.568;25.814;2022-12-11T00:39:32;100745.78;;;-9.82;100.00
59650;BME280;46162;57.568;25.814;2022-12-11T00:42:03;100755.09;;;-9.64;100.00
59650;BME280;46162;57.568;25.814;2022-12-11T00:44:39;100748.16;;;-9.65;100.00
59650;BME280;46162;57.568;25.814;2022-12-11T00:47:11;100744.38;;;-9.44;100.00
59650;BME280;46162;57.568;25.814;2022-12-11T00:50:37;100750.47;;;-9.47;100.00
59650;BME280;46162;57.568;25.814;2022-12-11T00:53:13;100738.84;;;-9.27;100.00
59650;BME280;46162;57.568;25.814;2022-12-11T00:55:45;100745.22;;;-9.45;100.00
59650;BME280;46162;57.568;25.814;2022-12-11T00:58:17;100756.91;;;-9.69;100.00
59650;BME280;46162;57.568;25.814;2022-12-11T01:04:06;100744.69;;;-9.67;100.00
59650;BME280;46162;57.568;25.814;2022-12-11T01:06:36;100742.59;;;-9.44;100.00
59650;BME280;46162;57.568;25.814;2022-12-11T01:09:29;100746.03;;;-9.40;100.00
59650;BME280;46162;57.568;25.814;2022-12-11T01:12:23;100737.19;;;-9.33;100.00
59650;BME280;46162;57.568;25.814;2022-12-11T01:18:08;100747.66;;;-9.35;100.00
59650;BME280;46162;57.568;25.814;2022-12-11T01:20:40;100740.59;;;-9.26;100.00
59650;BME280;46162;57.568;25.814;2022-12-11T01:23:13;100742.34;;;-9.28;100.00
59650;BME280;46162;57.568;25.814;2022-12-11T01:25:49;100743.41;;;-9.40;100.00
59650;BME280;46162;57.568;25.814;2022-12-11T01:28:22;100747.44;;;-9.19;100.00
59650;BME280;46162;57.568;25.814;2022-12-11T01:31:06;100745.75;;;-9.23;100.00
59650;BME280;46162;57.568;25.814;2022-12-11T01:33:49;100740.22;;;-9.06;100.00
59650;BME280;46162;57.568;25.814;2022-12-11T01:36:34;100736.75;;;-9.07;100.00
59650;BME280;46162;57.568;25.814;2022-12-11T01:41:57;100756.22;;;-9.25;100.00
59650;BME280;46162;57.568;25.814;2022-12-11T01:47:39;100752.94;;;-9.38;100.00
59650;BME280;46162;57.568;25.814;2022-12-11T01:50:08;100744.75;;;-9.15;100.00
59650;BME280;46162;57.568;25.814;2022-12-11T01:52:38;100746.22;;;-9.00;100.00
59650;BME280;46162;57.568;25.814;2022-12-11T01:55:15;100745.53;;;-9.11;100.00
59650;BME280;46162;57.568;25.814;2022-12-11T01:58:01;100738.47;;;-9.06;100.00
59650;BME280;46162;57.568;25.814;2022-12-11T02:00:30;100733.97;;;-8.98;100.00
59650;BME280;46162;57.568;25.814;2022-12-11T02:03:00;100731.19;;;-8.90;100.00
59650;BME280;46162;57.568;25.814;2022-12-11T02:06:32;100728.78;;;-9.01;100.00
59650;BME280;46162;57.568;25.814;2022-12-11T02:09:05;100740.16;;;-9.02;100.00
59650;BME280;46162;57.568;25.814;2022-12-11T02:11:52;100737.69;;;-9.10;100.00
59650;BME280;46162;57.568;25.814;2022-12-11T02:14:51;100744.75;;;-9.16;100.00
59650;BME280;46162;57.568;25.814;2022-12-11T02:17:31;100749.06;;;-9.14;100.00
59650;BME280;46162;57.568;25.814;2022-12-11T02:20:38;100744.56;;;-9.05;100.00
59650;BME280;46162;57.568;25.814;2022-12-11T02:24:02;100738.69;;;-9.18;100.00
59650;BME280;46162;57.568;25.814;2022-12-11T02:29:52;100743.13;;;-9.23;100.00
59650;BME280;46162;57.568;25.814;2022-12-11T02:35:46;100751.63;;;-9.11;100.00
59650;BME280;46162;57.568;25.814;2022-12-11T02:41:54;100759.34;;;-9.03;100.00
59650;BME280;46162;57.568;25.814;2022-12-11T02:44:25;100768.16;;;-9.07;100.00
59650;BME280;46162;57.568;25.814;2022-12-11T02:46:57;100753.38;;;-9.10;100.00
59650;BME280;46162;57.568;25.814;2022-12-11T02:49:27;100748.16;;;-9.11;100.00
59650;BME280;46162;57.568;25.814;2022-12-11T02:51:58;100752.53;;;-9.13;100.00
59650;BME280;46162;57.568;25.814;2022-12-11T02:57:30;100750.78;;;-9.13;100.00
59650;BME280;46162;57.568;25.814;2022-12-11T03:00:05;100756.78;;;-9.04;100.00
59650;BME280;46162;57.568;25.814;2022-12-11T03:02:55;100748.88;;;-9.03;100.00
59650;BME280;46162;57.568;25.814;2022-12-11T03:05:25;100760.16;;;-8.99;100.00
59650;BME280;46162;57.568;25.814;2022-12-11T03:07:54;100758.34;;;-8.96;100.00
59650;BME280;46162;57.568;25.814;2022-12-11T03:10:23;100755.31;;;-9.22;100.00
59650;BME280;46162;57.568;25.814;2022-12-11T03:13:12;100757.56;;;-8.99;100.00
59650;BME280;46162;57.568;25.814;2022-12-11T03:18:52;100748.78;;;-8.97;100.00
59650;BME280;46162;57.568;25.814;2022-12-11T03:27:26;100736.84;;;-9.12;100.00
59650;BME280;46162;57.568;25.814;2022-12-11T03:30:02;100744.41;;;-8.98;100.00
59650;BME280;46162;57.568;25.814;2022-12-11T03:32:57;100741.06;;;-9.04;100.00
59650;BME280;46162;57.568;25.814;2022-12-11T03:35:34;100745.09;;;-8.87;100.00
59650;BME280;46162;57.568;25.814;2022-12-11T03:38:10;100740.81;;;-8.91;100.00
59650;BME280;46162;57.568;25.814;2022-12-11T03:40:53;100745.34;;;-9.00;100.00
59650;BME280;46162;57.568;25.814;2022-12-11T03:49:45;100734.19;;;-9.10;100.00
59650;BME280;46162;57.568;25.814;2022-12-11T03:52:17;100726.13;;;-8.98;100.00
59650;BME280;46162;57.568;25.814;2022-12-11T03:54:48;100735.41;;;-8.80;100.00
59650;BME280;46162;57.568;25.814;2022-12-11T03:57:39;100730.06;;;-8.75;100.00
59650;BME280;46162;57.568;25.814;2022-12-11T04:03:03;100735.56;;;-8.91;100.00
59650;BME280;46162;57.568;25.814;2022-12-11T04:05:47;100729.41;;;-8.87;100.00
59650;BME280;46162;57.568;25.814;2022-12-11T04:11:30;100738.41;;;-9.03;100.00
59650;BME280;46162;57.568;25.814;2022-12-11T04:14:45;100738.19;;;-8.91;100.00
59650;BME280;46162;57.568;25.814;2022-12-11T04:17:33;100740.66;;;-8.83;100.00
59650;BME280;46162;57.568;25.814;2022-12-11T04:26:59;100744.22;;;-8.85;100.00
59650;BME280;46162;57.568;25.814;2022-12-11T04:30:09;100738.88;;;-8.81;100.00
59650;BME280;46162;57.568;25.814;2022-12-11T04:32:39;100742.34;;;-8.77;100.00
59650;BME280;46162;57.568;25.814;2022-12-11T04:35:08;100731.78;;;-8.74;100.00
59650;BME280;46162;57.568;25.814;2022-12-11T04:37:40;100733.50;;;-8.73;100.00
59650;BME280;46162;57.568;25.814;2022-12-11T04:40:24;100739.88;;;-8.87;100.00
59650;BME280;46162;57.568;25.814;2022-12-11T04:43:11;100743.34;;;-8.84;100.00
59650;BME280;46162;57.568;25.814;2022-12-11T04:45:40;100752.94;;;-8.85;100.00
59650;BME280;46162;57.568;25.814;2022-12-11T04:48:14;100742.41;;;-8.82;100.00
59650;BME280;46162;57.568;25.814;2022-12-11T04:50:45;100736.09;;;-8.70;100.00
59650;BME280;46162;57.568;25.814;2022-12-11T04:53:14;100743.28;;;-8.81;100.00
59650;BME280;46162;57.568;25.814;2022-12-11T04:55:43;100744.97;;;-8.80;100.00
59650;BME280;46162;57.568;25.814;2022-12-11T04:59:15;100742.97;;;-8.66;100.00
59650;BME280;46162;57.568;25.814;2022-12-11T05:01:47;100746.28;;;-8.56;100.00
59650;BME280;46162;57.568;25.814;2022-12-11T05:04:16;100748.09;;;-8.60;100.00
59650;BME280;46162;57.568;25.814;2022-12-11T05:07:00;100754.88;;;-8.50;100.00
59650;BME280;46162;57.568;25.814;2022-12-11T05:09:29;100757.13;;;-8.76;100.00
59650;BME280;46162;57.568;25.814;2022-12-11T05:12:01;100750.00;;;-8.68;100.00
59650;BME280;46162;57.568;25.814;2022-12-11T05:14:37;100740.78;;;-8.89;100.00
59650;BME280;46162;57.568;25.814;2022-12-11T05:17:06;100735.41;;;-8.81;100.00
59650;BME280;46162;57.568;25.814;2022-12-11T05:19:35;100744.09;;;-8.79;100.00
59650;BME280;46162;57.568;25.814;2022-12-11T05:22:08;100750.19;;;-8.79;100.00
59650;BME280;46162;57.568;25.814;2022-12-11T05:24:51;100758.81;;;-8.72;100.00
59650;BME280;46162;57.568;25.814;2022-12-11T05:27:27;100757.94;;;-8.73;100.00
59650;BME280;46162;57.568;25.814;2022-12-11T05:30:00;100749.19;;;-8.72;100.00
59650;BME280;46162;57.568;25.814;2022-12-11T05:32:29;100760.66;;;-8.77;100.00
59650;BME280;46162;57.568;25.814;2022-12-11T05:34:58;100758.88;;;-8.77;100.00
59650;BME280;46162;57.568;25.814;2022-12-11T05:37:26;100750.13;;;-8.76;100.00
59650;BME280;46162;57.568;25.814;2022-12-11T05:39:55;100753.53;;;-8.71;100.00
59650;BME280;46162;57.568;25.814;2022-12-11T05:42:24;100759.88;;;-8.82;100.00
59650;BME280;46162;57.568;25.814;2022-12-11T05:45:13;100755.34;;;-8.74;100.00
59650;BME280;46162;57.568;25.814;2022-12-11T05:47:59;100761.72;;;-8.42;100.00
59650;BME280;46162;57.568;25.814;2022-12-11T05:50:30;100755.72;;;-8.48;100.00
59650;BME280;46162;57.568;25.814;2022-12-11T05:52:59;100748.88;;;-8.55;100.00
59650;BME280;46162;57.568;25.814;2022-12-11T05:55:28;100753.13;;;-8.51;100.00
59650;BME280;46162;57.568;25.814;2022-12-11T05:57:57;100750.63;;;-8.55;100.00
59650;BME280;46162;57.568;25.814;2022-12-11T06:00:28;100747.34;;;-8.67;100.00
59650;BME280;46162;57.568;25.814;2022-12-11T06:03:02;100743.28;;;-8.81;100.00
59650;BME280;46162;57.568;25.814;2022-12-11T06:05:31;100743.44;;;-8.91;100.00
59650;BME280;46162;57.568;25.814;2022-12-11T06:08:15;100741.56;;;-8.82;100.00
59650;BME280;46162;57.568;25.814;2022-12-11T06:10:44;100747.66;;;-8.83;100.00
59650;BME280;46162;57.568;25.814;2022-12-11T06:13:14;100742.28;;;-8.76;100.00
59650;BME280;46162;57.568;25.814;2022-12-11T06:15:49;100739.75;;;-8.80;100.00
59650;BME280;46162;57.568;25.814;2022-12-11T06:18:25;100757.06;;;-8.73;100.00
59650;BME280;46162;57.568;25.814;2022-12-11T06:21:21;100751.91;;;-8.76;100.00
59650;BME280;46162;57.568;25.814;2022-12-11T06:24:11;100757.19;;;-8.79;100.00
59650;BME280;46162;57.568;25.814;2022-12-11T06:26:44;100759.91;;;-8.85;100.00
59650;BME280;46162;57.568;25.814;2022-12-11T06:32:18;100770.81;;;-8.62;100.00
59650;BME280;46162;57.568;25.814;2022-12-11T06:34:47;100767.81;;;-8.42;100.00
59650;BME280;46162;57.568;25.814;2022-12-11T06:37:16;100760.13;;;-8.50;100.00
59650;BME280;46162;57.568;25.814;2022-12-11T06:39:45;100757.66;;;-8.59;100.00
59650;BME280;46162;57.568;25.814;2022-12-11T06:42:18;100757.66;;;-8.57;100.00
59650;BME280;46162;57.568;25.814;2022-12-11T06:44:47;100754.22;;;-8.61;100.00
59650;BME280;46162;57.568;25.814;2022-12-11T06:47:19;100751.50;;;-8.55;100.00
59650;BME280;46162;57.568;25.814;2022-12-11T06:50:02;100760.22;;;-8.56;100.00
59650;BME280;46162;57.568;25.814;2022-12-11T06:52:32;100763.91;;;-8.66;100.00
59650;BME280;46162;57.568;25.814;2022-12-11T06:55:01;100763.00;;;-8.63;100.00
59650;BME280;46162;57.568;25.814;2022-12-11T06:58:15;100768.22;;;-8.62;100.00
59650;BME280;46162;57.568;25.814;2022-12-11T07:00:47;100758.38;;;-8.51;100.00
59650;BME280;46162;57.568;25.814;2022-12-11T07:03:19;100761.81;;;-8.47;100.00
59650;BME280;46162;57.568;25.814;2022-12-11T07:05:58;100761.50;;;-8.33;100.00
59650;BME280;46162;57.568;25.814;2022-12-11T07:08:40;100763.63;;;-8.51;100.00
59650;BME280;46162;57.568;25.814;2022-12-11T07:11:11;100756.66;;;-8.52;100.00
59650;BME280;46162;57.568;25.814;2022-12-11T07:13:40;100757.19;;;-8.36;100.00
59650;BME280;46162;57.568;25.814;2022-12-11T07:16:11;100760.13;;;-8.50;100.00
59650;BME280;46162;57.568;25.814;2022-12-11T07:19:19;100761.75;;;-8.46;100.00
59650;BME280;46162;57.568;25.814;2022-12-11T07:21:48;100766.03;;;-8.40;100.00
59650;BME280;46162;57.568;25.814;2022-12-11T07:24:25;100769.09;;;-8.21;100.00
59650;BME280;46162;57.568;25.814;2022-12-11T07:27:42;100759.63;;;-8.27;100.00
59650;BME280;46162;57.568;25.814;2022-12-11T07:33:18;100752.56;;;-8.23;100.00
59650;BME280;46162;57.568;25.814;2022-12-11T07:45:38;100745.25;;;-8.07;100.00
59650;BME280;46162;57.568;25.814;2022-12-11T07:48:07;100741.34;;;-8.30;100.00
59650;BME280;46162;57.568;25.814;2022-12-11T07:50:36;100748.78;;;-8.10;100.00
59650;BME280;46162;57.568;25.814;2022-12-11T07:53:55;100738.25;;;-8.07;100.00
59650;BME280;46162;57.568;25.814;2022-12-11T07:56:46;100747.00;;;-8.08;100.00
59650;BME280;46162;57.568;25.814;2022-12-11T07:59:57;100751.78;;;-7.86;100.00
59650;BME280;46162;57.568;25.814;2022-12-11T08:02:50;100743.09;;;-7.88;100.00
59650;BME280;46162;57.568;25.814;2022-12-11T08:05:21;100750.13;;;-7.90;100.00
59650;BME280;46162;57.568;25.814;2022-12-11T08:07:55;100747.34;;;-7.84;100.00
59650;BME280;46162;57.568;25.814;2022-12-11T08:10:46;100751.91;;;-7.91;100.00
59650;BME280;46162;57.568;25.814;2022-12-11T08:13:23;100753.44;;;-7.82;100.00
59650;BME280;46162;57.568;25.814;2022-12-11T08:18:59;100755.81;;;-8.12;100.00
59650;BME280;46162;57.568;25.814;2022-12-11T08:21:28;100756.38;;;-7.96;100.00
59650;BME280;46162;57.568;25.814;2022-12-11T08:23:57;100757.84;;;-7.84;100.00
59650;BME280;46162;57.568;25.814;2022-12-11T08:29:58;100755.56;;;-8.00;100.00
59650;BME280;46162;57.568;25.814;2022-12-11T08:32:30;100756.50;;;-8.04;100.00
59650;BME280;46162;57.568;25.814;2022-12-11T08:35:07;100745.28;;;-8.09;100.00
59650;BME280;46162;57.568;25.814;2022-12-11T08:38:10;100754.34;;;-7.85;100.00
59650;BME280;46162;57.568;25.814;2022-12-11T08:41:30;100750.19;;;-7.93;100.00
59650;BME280;46162;57.568;25.814;2022-12-11T08:44:15;100755.22;;;-7.84;100.00
59650;BME280;46162;57.568;25.814;2022-12-11T08:51:25;100737.91;;;-7.91;100.00
59650;BME280;46162;57.568;25.814;2022-12-11T08:54:59;100742.22;;;-7.89;100.00
59650;BME280;46162;57.568;25.814;2022-12-11T08:58:16;100745.47;;;-7.78;100.00
59650;BME280;46162;57.568;25.814;2022-12-11T09:01:42;100728.53;;;-7.64;100.00
59650;BME280;46162;57.568;25.814;2022-12-11T09:04:56;100727.09;;;-7.76;100.00
59650;BME280;46162;57.568;25.814;2022-12-11T09:11:01;100725.13;;;-7.66;100.00
59650;BME280;46162;57.568;25.814;2022-12-11T09:13:35;100722.63;;;-7.72;100.00
59650;BME280;46162;57.568;25.814;2022-12-11T09:16:38;100723.28;;;-7.63;100.00
59650;BME280;46162;57.568;25.814;2022-12-11T09:19:44;100715.91;;;-7.47;100.00
59650;BME280;46162;57.568;25.814;2022-12-11T09:22:14;100703.81;;;-7.52;100.00
59650;BME280;46162;57.568;25.814;2022-12-11T09:25:50;100699.22;;;-7.44;100.00
59650;BME280;46162;57.568;25.814;2022-12-11T09:28:46;100697.50;;;-7.45;100.00
59650;BME280;46162;57.568;25.814;2022-12-11T09:35:30;100694.06;;;-7.47;100.00
59650;BME280;46162;57.568;25.814;2022-12-11T09:38:22;100687.94;;;-7.46;100.00
59650;BME280;46162;57.568;25.814;2022-12-11T09:44:14;100673.69;;;-7.36;100.00
59650;BME280;46162;57.568;25.814;2022-12-11T09:46:49;100691.19;;;-7.37;100.00
59650;BME280;46162;57.568;25.814;2022-12-11T09:49:29;100689.44;;;-7.36;100.00
59650;BME280;46162;57.568;25.814;2022-12-11T09:52:16;100684.25;;;-7.39;100.00
59650;BME280;46162;57.568;25.814;2022-12-11T09:54:57;100683.50;;;-7.44;100.00
59650;BME280;46162;57.568;25.814;2022-12-11T09:57:51;100687.03;;;-7.45;100.00
59650;BME280;46162;57.568;25.814;2022-12-11T10:01:02;100685.00;;;-7.34;100.00
59650;BME280;46162;57.568;25.814;2022-12-11T10:12:15;100682.53;;;-7.40;100.00
59650;BME280;46162;57.568;25.814;2022-12-11T10:15:36;100685.97;;;-7.38;100.00
59650;BME280;46162;57.568;25.814;2022-12-11T10:22:51;100676.19;;;-7.31;100.00
59650;BME280;46162;57.568;25.814;2022-12-11T10:25:49;100671.91;;;-7.34;100.00
59650;BME280;46162;57.568;25.814;2022-12-11T10:28:59;100659.34;;;-7.23;100.00
59650;BME280;46162;57.568;25.814;2022-12-11T10:32:10;100661.94;;;-7.21;100.00
59650;BME280;46162;57.568;25.814;2022-12-11T10:42:27;100651.56;;;-7.26;100.00
59650;BME280;46162;57.568;25.814;2022-12-11T10:48:52;100662.72;;;-7.18;100.00
59650;BME280;46162;57.568;25.814;2022-12-11T11:01:58;100642.31;;;-7.06;100.00
59650;BME280;46162;57.568;25.814;2022-12-11T11:04:42;100647.56;;;-7.06;100.00
59650;BME280;46162;57.568;25.814;2022-12-11T11:07:19;100642.41;;;-7.09;100.00
59650;BME280;46162;57.568;25.814;2022-12-11T11:10:13;100654.41;;;-7.02;100.00
59650;BME280;46162;57.568;25.814;2022-12-11T11:12:44;100643.03;;;-7.01;100.00
59650;BME280;46162;57.568;25.814;2022-12-11T11:15:36;100650.59;;;-6.90;100.00
59650;BME280;46162;57.568;25.814;2022-12-11T11:21:17;100635.16;;;-7.01;100.00
59650;BME280;46162;57.568;25.814;2022-12-11T11:23:54;100636.66;;;-6.93;100.00
59650;BME280;46162;57.568;25.814;2022-12-11T11:26:50;100632.94;;;-6.84;100.00
59650;BME280;46162;57.568;25.814;2022-12-11T11:29:45;100627.84;;;-6.90;100.00
59650;BME280;46162;57.568;25.814;2022-12-11T11:35:59;100626.84;;;-6.86;100.00
59650;BME280;46162;57.568;25.814;2022-12-11T11:38:33;100630.28;;;-6.82;100.00
59650;BME280;46162;57.568;25.814;2022-12-11T11:41:17;100625.66;;;-6.74;100.00
59650;BME280;46162;57.568;25.814;2022-12-11T11:43:54;100624.19;;;-6.84;100.00
59650;BME280;46162;57.568;25.814;2022-12-11T11:50:15;100618.06;;;-6.85;100.00
59650;BME280;46162;57.568;25.814;2022-12-11T11:53:07;100613.91;;;-6.92;100.00
59650;BME280;46162;57.568;25.814;2022-12-11T11:56:26;100606.06;;;-6.92;100.00
59650;BME280;46162;57.568;25.814;2022-12-11T11:59:19;100596.16;;;-6.82;100.00
59650;BME280;46162;57.568;25.814;2022-12-11T12:01:57;100594.66;;;-6.93;100.00
59650;BME280;46162;57.568;25.814;2022-12-11T12:04:31;100597.34;;;-6.94;100.00
59650;BME280;46162;57.568;25.814;2022-12-11T12:07:28;100597.44;;;-6.97;100.00
59650;BME280;46162;57.568;25.814;2022-12-11T12:10:24;100589.47;;;-6.94;100.00
59650;BME280;46162;57.568;25.814;2022-12-11T12:13:12;100584.63;;;-6.78;100.00
59650;BME280;46162;57.568;25.814;2022-12-11T12:16:04;100585.69;;;-6.84;100.00
59650;BME280;46162;57.568;25.814;2022-12-11T12:19:02;100596.09;;;-6.81;100.00
59650;BME280;46162;57.568;25.814;2022-12-11T12:24:52;100590.94;;;-6.84;100.00
59650;BME280;46162;57.568;25.814;2022-12-11T12:27:30;100580.75;;;-6.95;100.00
59650;BME280;46162;57.568;25.814;2022-12-11T12:30:34;100582.72;;;-7.03;100.00
59650;BME280;46162;57.568;25.814;2022-12-11T12:36:20;100577.66;;;-7.09;100.00
59650;BME280;46162;57.568;25.814;2022-12-11T12:42:25;100575.06;;;-7.10;100.00
59650;BME280;46162;57.568;25.814;2022-12-11T12:44:58;100576.84;;;-7.13;100.00
59650;BME280;46162;57.568;25.814;2022-12-11T12:47:34;100578.72;;;-7.16;100.00
59650;BME280;46162;57.568;25.814;2022-12-11T12:50:10;100584.06;;;-7.19;100.00
59650;BME280;46162;57.568;25.814;2022-12-11T12:52:45;100580.31;;;-7.10;100.00
59650;BME280;46162;57.568;25.814;2022-12-11T12:55:21;100576.03;;;-7.15;100.00
59650;BME280;46162;57.568;25.814;2022-12-11T12:57:53;100574.63;;;-7.26;100.00
59650;BME280;46162;57.568;25.814;2022-12-11T13:00:28;100591.13;;;-7.23;100.00
59650;BME280;46162;57.568;25.814;2022-12-11T13:03:02;100591.09;;;-7.21;100.00
59650;BME280;46162;57.568;25.814;2022-12-11T13:05:42;100587.53;;;-7.19;100.00
59650;BME280;46162;57.568;25.814;2022-12-11T13:08:12;100581.59;;;-7.25;100.00
59650;BME280;46162;57.568;25.814;2022-12-11T13:11:00;100575.50;;;-7.26;100.00
59650;BME280;46162;57.568;25.814;2022-12-11T13:13:34;100572.13;;;-7.31;100.00
59650;BME280;46162;57.568;25.814;2022-12-11T13:16:38;100574.03;;;-7.36;100.00
59650;BME280;46162;57.568;25.814;2022-12-11T13:22:23;100573.22;;;-7.40;100.00
59650;BME280;46162;57.568;25.814;2022-12-11T13:25:23;100565.41;;;-7.41;100.00
59650;BME280;46162;57.568;25.814;2022-12-11T13:28:20;100561.88;;;-7.40;100.00
59650;BME280;46162;57.568;25.814;2022-12-11T13:31:03;100557.59;;;-7.43;100.00
59650;BME280;46162;57.568;25.814;2022-12-11T13:33:48;100561.16;;;-7.45;100.00
59650;BME280;46162;57.568;25.814;2022-12-11T13:36:31;100556.13;;;-7.53;100.00
59650;BME280;46162;57.568;25.814;2022-12-11T13:39:24;100566.41;;;-7.47;100.00
59650;BME280;46162;57.568;25.814;2022-12-11T13:42:28;100558.84;;;-7.58;100.00
59650;BME280;46162;57.568;25.814;2022-12-11T13:45:18;100558.09;;;-7.61;100.00
59650;BME280;46162;57.568;25.814;2022-12-11T13:48:00;100552.78;;;-7.60;100.00
59650;BME280;46162;57.568;25.814;2022-12-11T13:50:31;100547.50;;;-7.58;100.00
59650;BME280;46162;57.568;25.814;2022-12-11T13:53:19;100551.09;;;-7.62;100.00
59650;BME280;46162;57.568;25.814;2022-12-11T13:56:17;100548.47;;;-7.62;100.00
59650;BME280;46162;57.568;25.814;2022-12-11T13:59:24;100540.88;;;-7.71;100.00
59650;BME280;46162;57.568;25.814;2022-12-11T14:01:56;100531.16;;;-7.68;100.00
59650;BME280;46162;57.568;25.814;2022-12-11T14:04:36;100535.75;;;-7.76;100.00
59650;BME280;46162;57.568;25.814;2022-12-11T14:07:06;100521.19;;;-7.86;100.00
59650;BME280;46162;57.568;25.814;2022-12-11T14:09:44;100514.28;;;-7.90;100.00
59650;BME280;46162;57.568;25.814;2022-12-11T14:15:43;100519.31;;;-7.83;100.00
59650;BME280;46162;57.568;25.814;2022-12-11T14:20:59;100503.88;;;-7.93;100.00
59650;BME280;46162;57.568;25.814;2022-12-11T14:23:29;100497.66;;;-7.89;100.00
59650;BME280;46162;57.568;25.814;2022-12-11T14:26:14;100483.81;;;-7.94;100.00
59650;BME280;46162;57.568;25.814;2022-12-11T14:29:02;100489.13;;;-7.97;100.00
59650;BME280;46162;57.568;25.814;2022-12-11T14:32:17;100488.06;;;-7.90;100.00
59650;BME280;46162;57.568;25.814;2022-12-11T14:35:30;100487.28;;;-7.94;100.00
59650;BME280;46162;57.568;25.814;2022-12-11T14:41:34;100482.59;;;-7.81;100.00
59650;BME280;46162;57.568;25.814;2022-12-11T14:44:38;100471.63;;;-7.95;100.00
59650;BME280;46162;57.568;25.814;2022-12-11T14:47:15;100467.00;;;-7.86;100.00
59650;BME280;46162;57.568;25.814;2022-12-11T14:53:31;100451.63;;;-8.00;100.00
59650;BME280;46162;57.568;25.814;2022-12-11T14:56:12;100452.59;;;-8.04;100.00
59650;BME280;46162;57.568;25.814;2022-12-11T14:58:59;100447.34;;;-8.02;100.00
59650;BME280;46162;57.568;25.814;2022-12-11T15:01:34;100440.41;;;-8.05;100.00
59650;BME280;46162;57.568;25.814;2022-12-11T15:04:06;100441.16;;;-8.00;100.00
59650;BME280;46162;57.568;25.814;2022-12-11T15:06:45;100430.75;;;-8.03;100.00
59650;BME280;46162;57.568;25.814;2022-12-11T15:09:37;100431.38;;;-7.93;100.00
59650;BME280;46162;57.568;25.814;2022-12-11T15:15:12;100421.78;;;-7.94;100.00
59650;BME280;46162;57.568;25.814;2022-12-11T15:18:22;100412.31;;;-8.00;100.00
59650;BME280;46162;57.568;25.814;2022-12-11T15:21:05;100408.84;;;-8.00;100.00
59650;BME280;46162;57.568;25.814;2022-12-11T15:23:58;100405.25;;;-7.96;100.00
59650;BME280;46162;57.568;25.814;2022-12-11T15:26:43;100402.69;;;-7.99;100.00
59650;BME280;46162;57.568;25.814;2022-12-11T15:29:33;100402.75;;;-8.01;100.00
59650;BME280;46162;57.568;25.814;2022-12-11T15:32:40;100395.88;;;-8.05;100.00
59650;BME280;46162;57.568;25.814;2022-12-11T15:35:26;100389.88;;;-8.08;100.00
59650;BME280;46162;57.568;25.814;2022-12-11T15:38:37;100391.50;;;-8.04;100.00
59650;BME280;46162;57.568;25.814;2022-12-11T15:41:33;100390.53;;;-8.02;100.00
59650;BME280;46162;57.568;25.814;2022-12-11T15:44:03;100381.97;;;-8.07;100.00
59650;BME280;46162;57.568;25.814;2022-12-11T15:46:45;100384.63;;;-8.08;100.00
59650;BME280;46162;57.568;25.814;2022-12-11T15:49:13;100378.47;;;-8.06;100.00
59650;BME280;46162;57.568;25.814;2022-12-11T15:52:00;100375.16;;;-8.14;100.00
59650;BME280;46162;57.568;25.814;2022-12-11T15:54:29;100386.31;;;-8.06;100.00
59650;BME280;46162;57.568;25.814;2022-12-11T15:57:15;100383.69;;;-8.06;100.00
59650;BME280;46162;57.568;25.814;2022-12-11T15:59:46;100380.25;;;-8.08;100.00
59650;BME280;46162;57.568;25.814;2022-12-11T16:02:25;100375.00;;;-8.08;100.00
59650;BME280;46162;57.568;25.814;2022-12-11T16:05:08;100361.94;;;-8.09;100.00
59650;BME280;46162;57.568;25.814;2022-12-11T16:07:40;100369.78;;;-8.08;100.00
59650;BME280;46162;57.568;25.814;2022-12-11T16:10:22;100367.03;;;-8.03;100.00
59650;BME280;46162;57.568;25.814;2022-12-11T16:16:02;100343.25;;;-7.97;100.00
59650;BME280;46162;57.568;25.814;2022-12-11T16:18:31;100347.69;;;-7.99;100.00
59650;BME280;46162;57.568;25.814;2022-12-11T16:21:18;100342.50;;;-8.01;100.00
59650;BME280;46162;57.568;25.814;2022-12-11T16:27:09;100328.69;;;-8.06;100.00
59650;BME280;46162;57.568;25.814;2022-12-11T16:29:39;100329.47;;;-8.04;100.00
59650;BME280;46162;57.568;25.814;2022-12-11T16:32:08;100326.91;;;-8.05;100.00
59650;BME280;46162;57.568;25.814;2022-12-11T16:34:40;100332.91;;;-8.02;100.00
59650;BME280;46162;57.568;25.814;2022-12-11T16:37:18;100326.81;;;-8.02;100.00